Time;durP1;ratioP1;P1;durP2;ratioP2;P2;SDS_P1;SDS_P2;PMS_P1;PMS_P2;Temp;Humidity;BMP_temperature;BMP_pressure;BME280_temperature;BME280_humidity;BME280_pressure;Samples;Min_cycle;Max_cycle;Signal;HPM_P1;HPM_P2
2023/01/10 00:01:20;;;;;;;23.60;12.50;;;6.70;99.90;;;;;;5036195;28;20434;-75
2023/01/10 00:03:46;;;;;;;21.90;11.40;;;6.70;99.90;;;;;;5052918;28;20842;-75
2023/01/10 00:06:12;;;;;;;19.00;12.47;;;6.70;99.90;;;;;;5055130;28;20170;-75
2023/01/10 00:08:38;;;;;;;17.43;12.10;;;6.70;99.90;;;;;;5039136;28;20926;-75
2023/01/10 00:13:22;;;;;;;18.53;11.73;;;6.60;99.90;;;;;;5035904;28;20250;-75
2023/01/10 00:13:52;;;;;;;19.57;12.40;;;6.60;99.90;;;;;;5051969;28;20187;-74
2023/01/10 00:16:18;;;;;;;26.00;11.87;;;6.60;99.90;;;;;;5046038;28;20924;-75
2023/01/10 00:18:44;;;;;;;29.30;14.60;;;6.60;99.90;;;;;;5035680;28;20453;-74
2023/01/10 00:21:10;;;;;;;21.27;12.57;;;6.70;99.90;;;;;;5050438;28;20221;-75
2023/01/10 00:23:35;;;;;;;22.97;12.90;;;6.60;99.90;;;;;;5055483;28;20623;-75
2023/01/10 00:26:01;;;;;;;23.57;13.43;;;6.70;99.90;;;;;;5042363;28;20519;-75
2023/01/10 00:28:27;;;;;;;21.73;13.60;;;6.80;99.90;;;;;;5034396;28;20184;-74
2023/01/10 00:30:58;;;;;;;20.57;12.33;;;6.70;99.90;;;;;;5035918;28;20202;-75
2023/01/10 00:33:24;;;;;;;18.47;11.37;;;6.70;99.90;;;;;;5035459;28;20398;-75
2023/01/10 00:35:49;;;;;;;22.97;11.00;;;6.80;99.90;;;;;;5034950;28;20552;-75
2023/01/10 00:38:15;;;;;;;20.30;10.13;;;6.80;99.90;;;;;;5033353;28;20690;-75
2023/01/10 00:40:41;;;;;;;27.83;10.17;;;6.80;99.90;;;;;;5046627;28;20289;-75
2023/01/10 00:45:53;;;;;;;18.83;10.17;;;6.80;99.90;;;;;;5034376;28;20892;-75
2023/01/10 00:48:19;;;;;;;19.50;10.33;;;6.80;99.90;;;;;;5036764;28;20406;-75
2023/01/10 00:50:45;;;;;;;22.10;10.90;;;6.80;99.90;;;;;;5055351;28;20186;-75
2023/01/10 00:53:11;;;;;;;23.83;10.40;;;6.80;99.90;;;;;;5052968;28;20179;-75
2023/01/10 00:55:37;;;;;;;17.90;10.13;;;6.80;99.90;;;;;;5033924;28;20529;-75
2023/01/10 00:58:03;;;;;;;15.97;9.13;;;6.80;99.90;;;;;;5044162;28;20535;-75
2023/01/10 01:00:28;;;;;;;14.67;8.87;;;6.80;99.90;;;;;;5053677;28;20623;-75
2023/01/10 01:02:56;;;;;;;33.50;10.83;;;6.90;99.90;;;;;;5046916;28;20480;-75
2023/01/10 01:05:22;;;;;;;21.50;10.43;;;6.80;99.90;;;;;;5034154;28;20259;-75
2023/01/10 01:07:51;;;;;;;24.53;10.50;;;6.80;99.90;;;;;;5040743;28;20890;-75
2023/01/10 01:10:27;;;;;;;15.37;9.10;;;6.80;99.90;;;;;;5054760;28;20546;-75
2023/01/10 01:12:54;;;;;;;19.07;9.37;;;6.80;99.90;;;;;;5036260;28;20930;-75
2023/01/10 01:15:20;;;;;;;18.47;9.30;;;6.80;99.90;;;;;;5033399;28;20435;-75
2023/01/10 01:17:46;;;;;;;16.23;8.50;;;6.80;99.90;;;;;;5050866;28;20468;-75
2023/01/10 01:20:13;;;;;;;18.90;9.73;;;6.80;99.90;;;;;;5054647;28;20414;-75
2023/01/10 01:22:39;;;;;;;19.90;8.57;;;6.70;99.90;;;;;;5041492;28;20844;-75
2023/01/10 01:25:06;;;;;;;23.43;10.00;;;6.70;99.90;;;;;;5051497;28;20639;-75
2023/01/10 01:27:33;;;;;;;22.77;8.80;;;6.70;99.90;;;;;;5054556;28;20444;-75
2023/01/10 01:30:00;;;;;;;13.03;8.43;;;6.70;99.90;;;;;;5040506;28;20418;-75
2023/01/10 01:32:26;;;;;;;14.30;7.93;;;6.70;99.90;;;;;;5033812;28;20402;-74
2023/01/10 01:34:51;;;;;;;22.33;9.27;;;6.70;99.90;;;;;;5033717;28;20446;-75
2023/01/10 01:37:18;;;;;;;13.20;7.60;;;6.70;99.90;;;;;;5032979;28;20434;-73
2023/01/10 01:39:48;;;;;;;20.17;9.10;;;6.60;99.90;;;;;;5035148;28;20172;-75
2023/01/10 01:42:30;;;;;;;20.43;8.27;;;6.60;99.90;;;;;;5037453;28;20409;-74
2023/01/10 01:45:22;;;;;;;14.73;6.87;;;6.60;99.90;;;;;;5051801;28;20790;-74
2023/01/10 01:48:05;;;;;;;13.23;7.60;;;6.60;99.90;;;;;;5044739;28;20434;-75
2023/01/10 01:50:45;;;;;;;13.13;7.87;;;6.50;99.90;;;;;;5051736;28;20428;-75
2023/01/10 01:53:17;;;;;;;16.20;8.30;;;6.50;99.90;;;;;;5053889;28;20420;-75
2023/01/10 01:55:45;;;;;;;16.20;6.90;;;6.40;99.90;;;;;;5039738;28;20438;-76
2023/01/10 01:58:16;;;;;;;14.73;8.00;;;6.40;99.90;;;;;;5033826;28;20458;-75
2023/01/10 02:00:43;;;;;;;13.33;7.53;;;6.40;99.90;;;;;;5045069;28;20417;-76
2023/01/10 02:03:09;;;;;;;12.67;7.40;;;6.30;99.90;;;;;;5033875;28;20402;-75
2023/01/10 02:05:38;;;;;;;24.10;7.63;;;6.30;99.90;;;;;;5043112;28;20477;-75
2023/01/10 02:08:04;;;;;;;22.20;7.80;;;6.30;99.90;;;;;;5052838;28;20890;-75
2023/01/10 02:11:08;;;;;;;9.40;6.73;;;6.40;99.90;;;;;;5052268;28;20502;-75
2023/01/10 02:13:41;;;;;;;14.03;7.63;;;6.40;99.90;;;;;;5049476;28;20418;-75
2023/01/10 02:16:07;;;;;;;14.70;8.30;;;6.30;99.90;;;;;;5032648;28;20418;-75
2023/01/10 02:18:33;;;;;;;18.00;6.50;;;6.40;99.90;;;;;;5049103;28;20460;-75
2023/01/10 02:21:17;;;;;;;13.37;6.37;;;6.40;99.90;;;;;;5053464;28;20452;-75
2023/01/10 02:24:13;;;;;;;9.30;5.70;;;6.30;99.90;;;;;;5035147;28;20918;-74
2023/01/10 02:26:53;;;;;;;13.50;7.03;;;6.40;99.90;;;;;;5031035;28;20771;-75
2023/01/10 02:29:33;;;;;;;16.67;7.20;;;6.40;99.90;;;;;;5033518;28;20413;-76
2023/01/10 02:32:17;;;;;;;11.00;5.73;;;6.50;99.90;;;;;;5034586;28;20501;-75
2023/01/10 02:34:57;;;;;;;13.33;5.53;;;6.50;99.90;;;;;;5051101;28;20433;-75
2023/01/10 02:37:50;;;;;;;10.43;5.93;;;6.40;99.90;;;;;;5048853;28;20515;-74
2023/01/10 02:40:28;;;;;;;8.47;6.30;;;6.30;99.90;;;;;;5033150;28;20402;-75
2023/01/10 02:43:23;;;;;;;15.27;6.00;;;6.30;99.90;;;;;;5040466;28;20479;-74
2023/01/10 02:45:57;;;;;;;12.23;6.17;;;6.30;99.90;;;;;;5050150;28;20900;-75
2023/01/10 02:48:23;;;;;;;13.10;5.80;;;6.30;99.90;;;;;;5033044;28;20410;-75
2023/01/10 02:51:02;;;;;;;12.23;5.37;;;6.20;99.90;;;;;;5032905;28;20427;-75
2023/01/10 02:53:38;;;;;;;8.47;4.90;;;6.20;99.90;;;;;;5053039;28;20199;-75
2023/01/10 02:56:37;;;;;;;9.27;5.10;;;6.20;99.90;;;;;;5049042;28;20445;-75
2023/01/10 02:59:28;;;;;;;12.53;6.13;;;6.20;99.90;;;;;;5031399;28;20945;-74
2023/01/10 03:02:12;;;;;;;13.10;4.83;;;6.20;99.90;;;;;;5040958;28;20418;-74
2023/01/10 03:04:57;;;;;;;6.70;5.70;;;6.20;99.90;;;;;;5051762;28;20498;-75
2023/01/10 03:07:29;;;;;;;9.57;5.43;;;6.20;99.90;;;;;;5048919;28;20413;-76
2023/01/10 03:10:04;;;;;;;13.33;5.87;;;6.10;99.90;;;;;;5052806;28;20474;-75
2023/01/10 03:12:36;;;;;;;10.53;5.63;;;6.10;99.90;;;;;;5051942;28;20416;-75
2023/01/10 03:15:05;;;;;;;16.73;6.53;;;6.20;99.90;;;;;;5047939;28;20434;-75
2023/01/10 03:17:31;;;;;;;17.63;6.13;;;6.20;99.90;;;;;;5031014;28;20495;-75
2023/01/10 03:20:02;;;;;;;9.90;5.40;;;6.30;99.90;;;;;;5034023;28;20833;-75
2023/01/10 03:22:30;;;;;;;11.90;5.30;;;6.30;99.90;;;;;;5052637;28;20949;-75
2023/01/10 03:24:58;;;;;;;12.70;5.97;;;6.30;99.90;;;;;;5049547;28;20421;-76
2023/01/10 03:27:39;;;;;;;9.30;4.80;;;6.30;99.90;;;;;;5032913;28;20830;-75
2023/01/10 03:30:37;;;;;;;10.73;6.37;;;6.30;99.90;;;;;;5033344;28;21003;-75
2023/01/10 03:33:04;;;;;;;12.27;6.07;;;6.30;99.90;;;;;;5046227;28;20433;-76
2023/01/10 03:35:50;;;;;;;8.40;5.83;;;6.30;99.90;;;;;;5050916;28;20506;-75
2023/01/10 03:38:53;;;;;;;13.13;5.13;;;6.30;99.90;;;;;;5051526;28;20467;-75
2023/01/10 03:41:46;;;;;;;12.60;5.00;;;6.30;99.90;;;;;;5040156;28;20475;-76
2023/01/10 03:44:42;;;;;;;18.30;6.90;;;6.20;99.90;;;;;;5032699;28;20434;-76
2023/01/10 03:47:31;;;;;;;9.77;5.43;;;6.20;99.90;;;;;;5032585;28;20464;-75
2023/01/10 03:50:12;;;;;;;7.67;5.37;;;6.20;99.90;;;;;;5049937;28;20448;-75
2023/01/10 03:52:40;;;;;;;11.40;6.60;;;6.10;99.90;;;;;;5052469;28;20417;-76
2023/01/10 03:55:08;;;;;;;9.80;6.93;;;6.10;99.90;;;;;;5032694;28;20483;-75
2023/01/10 03:57:34;;;;;;;19.83;6.70;;;6.10;99.90;;;;;;5031925;28;20576;-75
2023/01/10 04:00:00;;;;;;;11.10;8.50;;;6.10;99.90;;;;;;5048138;28;20460;-75
2023/01/10 04:02:30;;;;;;;16.77;8.67;;;6.10;99.90;;;;;;5032471;28;20163;-75
2023/01/10 04:04:57;;;;;;;10.57;8.40;;;6.00;99.90;;;;;;5033515;28;20230;-76
2023/01/10 04:07:24;;;;;;;19.70;8.50;;;6.00;99.90;;;;;;5032408;28;20914;-75
2023/01/10 04:09:50;;;;;;;15.30;9.20;;;6.00;99.90;;;;;;5032560;28;20517;-76
2023/01/10 04:12:16;;;;;;;16.50;9.00;;;5.90;99.90;;;;;;5032098;28;20624;-75
2023/01/10 04:14:45;;;;;;;13.47;8.30;;;6.00;99.90;;;;;;5050519;28;20437;-75
2023/01/10 04:17:11;;;;;;;9.17;8.27;;;6.00;99.90;;;;;;5053942;28;20421;-75
2023/01/10 04:19:37;;;;;;;15.87;9.30;;;6.00;99.90;;;;;;5055749;28;20405;-76
2023/01/10 04:22:04;;;;;;;13.40;7.27;;;5.90;99.90;;;;;;5043600;28;20826;-75
2023/01/10 04:24:30;;;;;;;10.20;7.33;;;5.90;99.90;;;;;;5034725;28;20187;-76
2023/01/10 04:26:56;;;;;;;14.63;7.87;;;5.90;99.90;;;;;;5044348;28;20505;-75
2023/01/10 04:29:22;;;;;;;10.07;7.60;;;6.00;99.90;;;;;;5055265;28;20420;-74
2023/01/10 04:31:48;;;;;;;15.00;7.20;;;5.90;99.90;;;;;;5045874;28;20435;-75
2023/01/10 04:34:13;;;;;;;17.67;7.47;;;6.00;99.90;;;;;;5035299;28;20218;-76
2023/01/10 04:36:39;;;;;;;11.77;6.47;;;6.00;99.90;;;;;;5040258;28;20933;-76
2023/01/10 04:39:05;;;;;;;11.70;6.77;;;6.00;99.90;;;;;;5055247;28;20687;-75
2023/01/10 04:41:31;;;;;;;10.83;6.83;;;5.90;99.90;;;;;;5051151;28;20185;-76
2023/01/10 04:43:56;;;;;;;13.90;6.40;;;5.80;99.90;;;;;;5035385;28;20182;-76
2023/01/10 04:46:22;;;;;;;8.20;4.80;;;5.80;99.90;;;;;;5045235;28;20444;-74
2023/01/10 04:48:48;;;;;;;15.43;6.17;;;5.70;99.90;;;;;;5055224;28;20166;-76
2023/01/10 04:51:13;;;;;;;11.50;6.63;;;5.70;99.90;;;;;;5050402;28;20650;-75
2023/01/10 04:53:40;;;;;;;22.33;6.17;;;5.70;99.90;;;;;;5040533;28;20189;-75
2023/01/10 04:56:08;;;;;;;10.37;5.33;;;5.70;99.90;;;;;;5040669;28;20241;-75
2023/01/10 04:58:35;;;;;;;7.97;5.27;;;5.60;99.90;;;;;;5054668;28;20449;-75
2023/01/10 05:01:13;;;;;;;16.87;7.50;;;5.60;99.90;;;;;;5048059;28;20504;-75
2023/01/10 05:03:38;;;;;;;9.13;5.33;;;5.50;99.90;;;;;;5034933;28;20406;-75
2023/01/10 05:06:05;;;;;;;17.77;6.93;;;5.50;99.90;;;;;;5040490;28;20872;-75
2023/01/10 05:08:31;;;;;;;17.20;6.77;;;5.50;99.90;;;;;;5054374;28;20184;-75
2023/01/10 05:10:57;;;;;;;10.67;7.10;;;5.40;99.90;;;;;;5050567;28;20782;-75
2023/01/10 05:13:23;;;;;;;15.60;6.67;;;5.40;99.90;;;;;;5054793;28;20464;-75
2023/01/10 05:15:52;;;;;;;12.67;5.87;;;5.40;99.90;;;;;;5052771;28;20230;-75
2023/01/10 05:18:18;;;;;;;11.90;6.00;;;5.40;99.90;;;;;;5054513;28;20470;-75
2023/01/10 05:20:43;;;;;;;11.57;7.00;;;5.40;99.90;;;;;;5040611;28;20427;-75
2023/01/10 05:23:09;;;;;;;13.67;6.37;;;5.40;99.90;;;;;;5033513;28;20193;-75
2023/01/10 05:25:35;;;;;;;9.33;5.53;;;5.40;99.90;;;;;;5045087;28;20190;-75
2023/01/10 05:28:01;;;;;;;17.07;5.97;;;5.40;99.90;;;;;;5034105;28;20175;-76
2023/01/10 05:30:26;;;;;;;8.27;5.57;;;5.40;99.90;;;;;;5034328;28;20215;-76
2023/01/10 05:32:52;;;;;;;14.93;7.40;;;5.50;99.90;;;;;;5048991;28;20626;-75
2023/01/10 05:35:18;;;;;;;11.00;7.20;;;5.50;99.90;;;;;;5033286;28;20195;-76
2023/01/10 05:37:44;;;;;;;13.07;6.73;;;5.50;99.90;;;;;;5047336;28;20206;-76
2023/01/10 05:40:11;;;;;;;11.43;6.60;;;5.50;99.90;;;;;;5054172;28;20540;-75
2023/01/10 05:42:36;;;;;;;11.83;6.03;;;5.50;99.90;;;;;;5049082;28;20412;-75
2023/01/10 05:45:03;;;;;;;13.63;6.03;;;5.50;99.90;;;;;;5053171;28;20813;-75
2023/01/10 05:47:29;;;;;;;11.43;6.57;;;5.40;99.90;;;;;;5039050;28;20176;-75
2023/01/10 05:49:54;;;;;;;13.93;6.10;;;5.40;99.90;;;;;;5039563;28;20424;-75
2023/01/10 05:52:20;;;;;;;12.10;5.33;;;5.40;99.90;;;;;;5054051;28;20174;-75
2023/01/10 05:54:46;;;;;;;10.67;6.10;;;5.40;99.90;;;;;;5047594;28;20188;-75
2023/01/10 05:57:12;;;;;;;8.87;5.63;;;5.50;99.90;;;;;;5033983;28;20167;-75
2023/01/10 05:59:38;;;;;;;8.30;5.40;;;5.50;99.90;;;;;;5037078;28;20174;-75
2023/01/10 06:02:03;;;;;;;6.60;5.20;;;5.50;99.90;;;;;;5052825;28;20415;-74
2023/01/10 06:04:29;;;;;;;10.83;5.70;;;5.40;99.90;;;;;;5050925;28;20189;-75
2023/01/10 06:06:55;;;;;;;9.90;6.20;;;5.40;99.90;;;;;;5033246;28;20165;-75
2023/01/10 06:09:20;;;;;;;15.73;6.20;;;5.40;99.90;;;;;;5033677;28;20175;-75
2023/01/10 06:11:46;;;;;;;11.93;5.77;;;5.40;99.90;;;;;;5053070;28;20183;-75
2023/01/10 06:14:12;;;;;;;6.20;4.77;;;5.50;99.90;;;;;;5051851;28;20284;-75
2023/01/10 06:16:37;;;;;;;16.17;6.20;;;5.40;99.90;;;;;;5034762;28;20174;-75
2023/01/10 06:19:03;;;;;;;7.67;4.73;;;5.40;99.90;;;;;;5041124;28;20210;-75
2023/01/10 06:21:29;;;;;;;8.73;5.30;;;5.40;99.90;;;;;;5053538;28;20180;-75
2023/01/10 06:23:54;;;;;;;14.57;6.00;;;5.40;99.90;;;;;;5046193;28;20186;-76
2023/01/10 06:26:20;;;;;;;14.67;5.77;;;5.40;99.90;;;;;;5032421;28;20213;-75
2023/01/10 06:28:46;;;;;;;12.13;5.70;;;5.40;99.90;;;;;;5037476;28;20547;-75
2023/01/10 06:31:13;;;;;;;15.83;5.77;;;5.40;99.90;;;;;;5053215;28;20167;-75
2023/01/10 06:33:40;;;;;;;10.43;5.10;;;5.40;99.90;;;;;;5050342;28;20171;-75
2023/01/10 06:36:06;;;;;;;12.80;5.13;;;5.40;99.90;;;;;;5031506;28;20441;-75
2023/01/10 06:38:32;;;;;;;12.60;4.60;;;5.40;99.90;;;;;;5036377;28;20559;-77
2023/01/10 06:40:57;;;;;;;8.80;5.50;;;5.40;99.90;;;;;;5032922;28;20487;-76
2023/01/10 06:43:23;;;;;;;7.07;5.20;;;5.40;99.90;;;;;;5033178;28;20172;-77
2023/01/10 06:45:49;;;;;;;12.10;6.37;;;5.40;99.90;;;;;;5032251;28;20199;-77
2023/01/10 06:48:15;;;;;;;9.03;7.20;;;5.40;99.90;;;;;;5042210;28;20171;-75
2023/01/10 06:50:40;;;;;;;12.40;7.10;;;5.40;99.90;;;;;;5053057;28;20413;-75
2023/01/10 06:53:06;;;;;;;15.13;6.00;;;5.30;99.90;;;;;;5045082;28;20186;-75
2023/01/10 06:55:32;;;;;;;15.13;6.00;;;5.40;99.90;;;;;;5032258;28;20191;-75
2023/01/10 06:58:02;;;;;;;9.50;6.20;;;5.40;99.90;;;;;;5038206;28;20190;-75
2023/01/10 07:00:29;;;;;;;7.07;6.07;;;5.30;99.90;;;;;;5052550;28;20176;-74
2023/01/10 07:02:57;;;;;;;13.33;6.57;;;5.30;99.90;;;;;;5048139;28;20422;-74
2023/01/10 07:05:23;;;;;;;23.20;6.10;;;5.30;99.90;;;;;;5032106;28;20472;-74
2023/01/10 07:07:48;;;;;;;15.63;5.63;;;5.30;99.90;;;;;;5035827;28;20821;-76
2023/01/10 07:10:14;;;;;;;8.23;4.60;;;5.30;99.90;;;;;;5052828;28;20189;-74
2023/01/10 07:12:40;;;;;;;14.17;5.87;;;5.30;99.90;;;;;;5051338;28;20197;-74
2023/01/10 07:15:06;;;;;;;19.13;6.40;;;5.30;99.90;;;;;;5031940;28;20426;-75
2023/01/10 07:17:32;;;;;;;13.50;6.00;;;5.30;99.90;;;;;;5043637;28;20266;-75
2023/01/10 07:19:57;;;;;;;12.00;5.50;;;5.40;99.90;;;;;;5052734;28;20488;-76
2023/01/10 07:22:23;;;;;;;8.90;6.03;;;5.40;99.90;;;;;;5042780;28;20529;-75
2023/01/10 07:24:49;;;;;;;9.20;5.97;;;5.40;99.90;;;;;;5031860;28;20573;-75
2023/01/10 07:27:15;;;;;;;18.83;5.50;;;5.40;99.90;;;;;;5040356;28;20505;-75
2023/01/10 07:29:40;;;;;;;9.93;6.90;;;5.40;99.90;;;;;;5052644;28;20159;-76
2023/01/10 07:32:06;;;;;;;14.43;5.17;;;5.40;99.90;;;;;;5046473;28;20414;-75
2023/01/10 07:34:32;;;;;;;8.50;5.97;;;5.40;99.90;;;;;;5031092;28;20286;-75
2023/01/10 07:36:57;;;;;;;18.60;5.10;;;5.40;99.90;;;;;;5044968;28;20193;-75
2023/01/10 07:39:23;;;;;;;10.13;4.80;;;5.40;99.90;;;;;;5052595;28;20207;-76
2023/01/10 07:41:49;;;;;;;16.33;6.53;;;5.30;99.90;;;;;;5033082;28;20212;-76
2023/01/10 07:44:15;;;;;;;17.10;5.87;;;5.30;99.90;;;;;;5032268;28;20261;-75
2023/01/10 07:46:41;;;;;;;9.37;6.40;;;5.30;99.90;;;;;;5049638;28;21016;-75
2023/01/10 07:49:07;;;;;;;13.40;5.90;;;5.30;99.90;;;;;;5054606;28;20509;-75
2023/01/10 07:51:32;;;;;;;15.07;4.50;;;5.20;99.90;;;;;;5040107;28;20186;-75
2023/01/10 07:53:58;;;;;;;9.97;4.87;;;5.30;99.90;;;;;;5035702;28;20175;-76
2023/01/10 07:56:24;;;;;;;12.90;5.00;;;5.20;99.90;;;;;;5035399;28;20858;-75
2023/01/10 07:58:50;;;;;;;8.03;4.33;;;5.20;99.90;;;;;;5036125;28;20206;-75
2023/01/10 08:01:16;;;;;;;14.30;5.20;;;5.20;99.90;;;;;;5036259;28;20402;-75
2023/01/10 08:03:41;;;;;;;9.80;4.60;;;5.10;99.90;;;;;;5034140;28;20400;-75
2023/01/10 08:06:11;;;;;;;12.00;5.40;;;5.10;99.90;;;;;;5033820;28;20187;-75
2023/01/10 08:08:37;;;;;;;9.33;4.63;;;5.10;99.90;;;;;;5035966;28;20224;-75
2023/01/10 08:11:04;;;;;;;8.10;4.87;;;5.10;99.90;;;;;;5035458;28;20422;-75
2023/01/10 08:13:30;;;;;;;14.03;4.73;;;5.00;99.90;;;;;;5036046;28;20416;-75
2023/01/10 08:15:57;;;;;;;7.17;4.83;;;5.00;99.90;;;;;;5034928;28;20853;-75
2023/01/10 08:18:24;;;;;;;17.70;5.47;;;5.00;99.90;;;;;;5035788;28;20806;-75
2023/01/10 08:20:51;;;;;;;13.13;4.70;;;5.00;99.90;;;;;;5035884;28;20464;-75
2023/01/10 08:23:17;;;;;;;6.80;4.97;;;5.00;99.90;;;;;;5035701;28;20399;-75
2023/01/10 08:25:44;;;;;;;13.30;5.03;;;5.00;99.90;;;;;;5037934;28;20433;-75
2023/01/10 08:28:09;;;;;;;14.30;5.93;;;5.00;99.90;;;;;;5054875;28;20422;-75
2023/01/10 08:30:36;;;;;;;7.23;4.60;;;5.00;99.90;;;;;;5052323;28;20426;-75
2023/01/10 08:33:03;;;;;;;19.33;4.17;;;5.00;99.90;;;;;;5035504;28;20580;-75
2023/01/10 08:35:29;;;;;;;12.23;4.87;;;5.00;99.90;;;;;;5035780;28;20442;-75
2023/01/10 08:37:59;;;;;;;6.50;4.40;;;5.00;99.90;;;;;;5055389;28;21140;-75
2023/01/10 08:40:25;;;;;;;12.40;4.70;;;5.00;99.90;;;;;;5043249;28;20412;-75
2023/01/10 08:43:02;;;;;;;12.83;5.70;;;5.00;99.90;;;;;;5035514;28;20401;-75
2023/01/10 08:45:28;;;;;;;14.83;5.30;;;5.00;99.90;;;;;;5045847;28;20860;-75
2023/01/10 08:47:54;;;;;;;16.80;5.20;;;5.00;99.90;;;;;;5054987;28;20400;-75
2023/01/10 08:50:20;;;;;;;11.63;4.73;;;5.00;99.90;;;;;;5044558;28;20479;-75
2023/01/10 08:52:46;;;;;;;8.83;4.30;;;5.00;99.90;;;;;;5035299;28;20461;-75
2023/01/10 08:55:12;;;;;;;7.80;4.50;;;5.00;99.90;;;;;;5034131;28;20434;-76
2023/01/10 08:57:37;;;;;;;9.10;3.83;;;5.00;99.90;;;;;;5039101;28;20221;-75
2023/01/10 09:00:04;;;;;;;8.50;4.17;;;5.00;99.90;;;;;;5039349;28;20176;-75
2023/01/10 09:02:30;;;;;;;12.70;5.77;;;5.00;99.90;;;;;;5035035;28;20563;-74
2023/01/10 09:04:55;;;;;;;13.00;4.77;;;5.00;99.90;;;;;;5042871;28;20435;-75
2023/01/10 09:07:21;;;;;;;10.80;3.33;;;5.10;99.90;;;;;;5054252;28;20527;-75
2023/01/10 09:09:47;;;;;;;14.07;4.07;;;5.10;99.90;;;;;;5047392;28;20168;-75
2023/01/10 09:14:57;;;;;;;9.80;4.83;;;5.30;99.90;;;;;;5047196;28;20197;-76
2023/01/10 09:17:23;;;;;;;11.30;4.23;;;5.30;99.90;;;;;;5051267;28;20782;-75
2023/01/10 09:19:48;;;;;;;12.60;5.10;;;5.40;99.90;;;;;;5043524;28;20176;-76
2023/01/10 09:22:14;;;;;;;6.40;4.60;;;5.50;99.90;;;;;;5044534;28;20413;-76
2023/01/10 09:24:42;;;;;;;7.40;4.80;;;5.50;99.90;;;;;;5036546;28;20223;-76
2023/01/10 09:27:10;;;;;;;10.33;6.00;;;5.50;99.90;;;;;;5054400;28;20793;-75
2023/01/10 09:29:35;;;;;;;5.70;4.73;;;5.50;99.90;;;;;;5051909;28;20459;-75
2023/01/10 09:32:01;;;;;;;8.97;4.67;;;5.50;99.90;;;;;;5034404;28;20412;-75
2023/01/10 09:34:27;;;;;;;9.10;4.40;;;5.50;99.90;;;;;;5049782;28;21157;-75
2023/01/10 09:36:53;;;;;;;6.27;4.50;;;5.50;99.90;;;;;;5034591;28;20224;-75
2023/01/10 09:39:20;;;;;;;6.93;5.47;;;5.60;99.90;;;;;;5051559;28;20605;-75
2023/01/10 09:42:19;;;;;;;8.67;4.80;;;5.60;99.90;;;;;;5041859;28;20503;-75
2023/01/10 09:44:59;;;;;;;10.40;5.00;;;5.60;99.90;;;;;;5053145;28;20844;-76
2023/01/10 09:47:50;;;;;;;12.73;4.53;;;5.60;99.90;;;;;;5034222;28;20460;-75
2023/01/10 09:50:27;;;;;;;7.33;5.57;;;5.70;99.90;;;;;;5036667;28;20409;-75
2023/01/10 09:52:57;;;;;;;11.53;5.80;;;5.70;99.90;;;;;;5054158;28;20945;-75
2023/01/10 09:55:30;;;;;;;15.33;5.03;;;5.70;99.90;;;;;;5049819;28;20446;-75
2023/01/10 09:57:59;;;;;;;11.10;5.70;;;5.70;99.90;;;;;;5051462;28;20449;-75
2023/01/10 10:00:37;;;;;;;11.07;7.33;;;5.70;99.90;;;;;;5051162;28;20422;-76
2023/01/10 10:03:12;;;;;;;11.03;7.50;;;5.70;99.90;;;;;;5033326;28;20755;-75
2023/01/10 10:05:37;;;;;;;8.40;5.47;;;5.80;99.90;;;;;;5036306;28;20474;-76
2023/01/10 10:08:12;;;;;;;14.13;6.47;;;5.80;99.90;;;;;;5053673;28;20412;-75
2023/01/10 10:10:42;;;;;;;14.27;6.13;;;5.90;99.90;;;;;;5038339;28;20176;-75
2023/01/10 10:13:20;;;;;;;17.27;5.53;;;5.90;99.90;;;;;;5033742;28;20472;-75
2023/01/10 10:15:51;;;;;;;17.03;6.23;;;6.00;99.90;;;;;;5047925;28;20952;-75
2023/01/10 10:18:33;;;;;;;10.47;5.70;;;6.00;99.90;;;;;;5041177;28;20490;-75
2023/01/10 10:21:06;;;;;;;8.30;5.53;;;6.00;99.90;;;;;;5031869;28;20467;-75
2023/01/10 10:23:56;;;;;;;15.53;6.20;;;6.00;99.90;;;;;;5034707;28;20425;-75
2023/01/10 10:26:42;;;;;;;18.50;5.73;;;6.10;99.90;;;;;;5032735;28;20413;-75
2023/01/10 10:29:45;;;;;;;17.43;7.47;;;6.10;99.90;;;;;;5049768;28;20813;-75
2023/01/10 10:32:49;;;;;;;11.00;5.90;;;6.10;99.90;;;;;;5053002;28;20405;-75
2023/01/10 10:35:22;;;;;;;7.93;5.57;;;6.20;99.90;;;;;;5032326;28;20436;-75
2023/01/10 10:37:51;;;;;;;9.10;5.50;;;6.20;99.90;;;;;;5049276;28;20449;-75
2023/01/10 10:40:20;;;;;;;15.50;6.53;;;6.20;99.90;;;;;;5052835;28;20409;-75
2023/01/10 10:42:51;;;;;;;13.17;5.60;;;6.20;99.90;;;;;;5037089;28;20430;-75
2023/01/10 10:45:21;;;;;;;8.70;5.00;;;6.30;99.90;;;;;;5032302;28;20418;-75
2023/01/10 10:48:13;;;;;;;11.20;5.97;;;6.30;99.90;;;;;;5034148;28;20422;-75
2023/01/10 10:51:01;;;;;;;14.30;5.90;;;6.30;99.90;;;;;;5032744;28;20448;-75
2023/01/10 10:53:28;;;;;;;9.37;6.40;;;6.30;99.90;;;;;;5033096;28;20954;-76
2023/01/10 10:55:55;;;;;;;17.63;5.70;;;6.30;99.90;;;;;;5032229;28;20472;-76
2023/01/10 10:58:21;;;;;;;9.30;5.27;;;6.30;99.90;;;;;;5049899;28;20461;-74
2023/01/10 11:00:46;;;;;;;18.53;6.13;;;6.40;99.90;;;;;;5045922;28;20428;-76
2023/01/10 11:03:26;;;;;;;18.17;6.47;;;6.40;99.90;;;;;;5032996;28;20406;-74
2023/01/10 11:05:52;;;;;;;11.17;6.50;;;6.40;99.90;;;;;;5038765;28;20186;-74
2023/01/10 11:08:20;;;;;;;16.20;6.20;;;6.50;99.90;;;;;;5052808;28;20401;-75
2023/01/10 11:10:55;;;;;;;12.67;7.20;;;6.40;99.90;;;;;;5047303;28;20423;-76
2023/01/10 11:13:32;;;;;;;10.67;5.87;;;6.40;99.90;;;;;;5032942;28;20412;-75
2023/01/10 11:15:59;;;;;;;10.80;6.20;;;6.50;99.90;;;;;;5050294;28;20957;-75
2023/01/10 11:18:27;;;;;;;12.80;5.73;;;6.50;99.90;;;;;;5052008;28;20457;-75
2023/01/10 11:21:12;;;;;;;13.97;6.37;;;6.50;99.90;;;;;;5035237;28;20509;-75
2023/01/10 11:23:41;;;;;;;14.63;6.20;;;6.50;99.90;;;;;;5047852;28;20513;-76
2023/01/10 11:26:21;;;;;;;15.13;6.87;;;6.50;99.90;;;;;;5055999;28;20414;-75
2023/01/10 11:28:46;;;;;;;8.90;5.93;;;6.40;99.90;;;;;;5044526;28;20429;-75
2023/01/10 11:31:12;;;;;;;14.87;6.17;;;6.50;99.90;;;;;;5036828;28;20825;-76
2023/01/10 11:33:40;;;;;;;14.23;6.20;;;6.60;99.90;;;;;;5046790;28;20429;-75
2023/01/10 11:36:12;;;;;;;10.30;6.53;;;6.60;99.90;;;;;;5055639;28;20455;-75
2023/01/10 11:38:38;;;;;;;16.43;6.67;;;6.60;99.90;;;;;;5046111;28;20460;-76
2023/01/10 11:41:26;;;;;;;12.40;6.20;;;6.60;99.90;;;;;;5036686;28;20429;-76
2023/01/10 11:43:51;;;;;;;6.13;4.63;;;6.60;99.90;;;;;;5046954;28;20429;-76
2023/01/10 11:46:20;;;;;;;13.03;5.63;;;6.60;99.90;;;;;;5054245;28;20754;-75
2023/01/10 11:49:05;;;;;;;12.87;6.33;;;6.60;99.90;;;;;;5036433;28;20188;-76
2023/01/10 11:51:33;;;;;;;14.00;6.20;;;6.60;99.90;;;;;;5038267;28;20821;-76
2023/01/10 11:54:11;;;;;;;18.70;7.30;;;6.60;99.90;;;;;;5056289;28;20397;-75
2023/01/10 11:56:42;;;;;;;10.07;6.03;;;6.60;99.90;;;;;;5052325;28;20441;-75
2023/01/10 11:59:15;;;;;;;16.37;6.73;;;6.70;99.90;;;;;;5036234;28;20450;-75
2023/01/10 12:02:00;;;;;;;12.63;6.10;;;6.80;99.90;;;;;;5038417;28;20428;-76
2023/01/10 12:04:33;;;;;;;16.13;6.70;;;6.80;99.90;;;;;;5055141;28;20417;-74
2023/01/10 12:07:03;;;;;;;10.73;4.80;;;6.80;99.90;;;;;;5051464;28;20505;-76
2023/01/10 12:09:44;;;;;;;7.80;5.20;;;6.80;99.90;;;;;;5036142;28;20402;-75
2023/01/10 12:12:16;;;;;;;11.93;6.00;;;6.90;99.90;;;;;;5041087;28;20919;-74
2023/01/10 12:14:42;;;;;;;12.07;6.40;;;6.80;99.90;;;;;;5054551;28;20432;-76
2023/01/10 12:17:33;;;;;;;26.10;6.47;;;6.80;99.90;;;;;;5049775;28;20434;-75
2023/01/10 12:20:01;;;;;;;17.17;6.10;;;6.90;99.90;;;;;;5035851;28;20468;-75
2023/01/10 12:22:32;;;;;;;16.93;5.50;;;6.90;99.90;;;;;;5041880;28;20406;-77
2023/01/10 12:25:01;;;;;;;11.83;6.40;;;6.80;99.90;;;;;;5054542;28;20809;-76
2023/01/10 12:27:28;;;;;;;8.90;5.60;;;6.80;99.90;;;;;;5053680;28;20401;-74
2023/01/10 12:30:06;;;;;;;7.63;5.43;;;6.80;99.90;;;;;;5055651;28;21156;-75
2023/01/10 12:32:43;;;;;;;11.23;5.87;;;6.90;99.90;;;;;;5046649;28;20418;-76
2023/01/10 12:35:19;;;;;;;8.57;5.10;;;6.90;99.90;;;;;;5033322;28;20425;-76
2023/01/10 12:38:01;;;;;;;7.90;6.23;;;7.00;99.90;;;;;;5044636;28;20436;-75
2023/01/10 12:40:43;;;;;;;7.90;5.93;;;7.00;99.90;;;;;;5055475;28;20446;-76
2023/01/10 12:46:30;;;;;;;10.73;6.90;;;7.20;99.90;;;;;;5034814;28;20421;-76
2023/01/10 12:49:07;;;;;;;15.03;6.00;;;7.20;99.90;;;;;;5034828;28;20779;-76
2023/01/10 12:51:34;;;;;;;13.80;6.00;;;7.20;99.90;;;;;;5036764;28;20393;-75
2023/01/10 12:54:12;;;;;;;10.43;5.73;;;7.20;99.90;;;;;;5055211;28;20890;-76
2023/01/10 12:56:39;;;;;;;9.27;5.40;;;7.20;99.90;;;;;;5047916;28;20839;-76
2023/01/10 12:59:19;;;;;;;13.00;6.47;;;7.20;99.90;;;;;;5035068;28;20485;-76
2023/01/10 13:01:51;;;;;;;13.20;7.60;;;7.20;99.90;;;;;;5040672;28;20471;-75
2023/01/10 13:04:21;;;;;;;13.13;7.17;;;7.20;99.90;;;;;;5054432;28;20422;-76
2023/01/10 13:06:48;;;;;;;15.73;6.90;;;7.20;99.90;;;;;;5049288;28;20415;-76
2023/01/10 13:09:18;;;;;;;8.13;5.80;;;7.20;99.90;;;;;;5034328;28;20398;-77
2023/01/10 13:11:55;;;;;;;9.63;5.57;;;7.20;99.90;;;;;;5039256;28;20455;-77
2023/01/10 13:14:27;;;;;;;12.20;5.37;;;7.20;99.90;;;;;;5053760;28;20428;-76